createdAt,value
2023-01-29T00:00:10.620Z,21.20
2023-01-29T00:02:37.503Z,28.00
2023-01-29T00:05:24.763Z,15.32
2023-01-29T00:07:52.762Z,13.70
2023-01-29T00:10:19.350Z,11.95
2023-01-29T00:12:45.924Z,10.45
2023-01-29T00:15:14.377Z,13.15
2023-01-29T00:17:40.963Z,12.95
2023-01-29T00:20:07.894Z,12.27
2023-01-29T00:22:34.518Z,9.65
2023-01-29T00:25:01.167Z,11.18
2023-01-29T00:27:27.781Z,8.85
2023-01-29T00:30:09.413Z,8.85
2023-01-29T00:32:36.339Z,10.38
2023-01-29T00:35:03.506Z,8.80
2023-01-29T00:37:34.425Z,10.57
2023-01-29T00:40:01.010Z,11.57
2023-01-29T00:42:47.728Z,11.07
2023-01-29T00:47:41.300Z,12.70
2023-01-29T00:50:11.700Z,12.27
2023-01-29T00:52:42.320Z,11.45
2023-01-29T00:55:10.633Z,9.82
2023-01-29T00:57:38.144Z,11.20
2023-01-29T01:00:08.347Z,10.52
2023-01-29T01:02:55.670Z,10.18
2023-01-29T01:05:22.640Z,13.35
2023-01-29T01:07:59.292Z,11.50
2023-01-29T01:10:31.863Z,22.25
2023-01-29T01:13:01.843Z,22.10
2023-01-29T01:15:31.908Z,16.55
2023-01-29T01:18:01.597Z,21.13
2023-01-29T01:20:31.789Z,25.13
2023-01-29T01:22:58.522Z,19.90
2023-01-29T01:25:26.771Z,16.95
2023-01-29T01:27:54.696Z,17.75
2023-01-29T01:30:21.845Z,16.75
2023-01-29T01:32:48.574Z,18.27
2023-01-29T01:35:15.173Z,20.02
2023-01-29T01:37:43.835Z,18.58
2023-01-29T01:40:18.420Z,20.60
2023-01-29T01:42:49.265Z,19.25
2023-01-29T01:45:37.025Z,18.95
2023-01-29T01:48:03.637Z,19.08
2023-01-29T01:50:33.738Z,25.50
2023-01-29T01:53:08.165Z,23.88
2023-01-29T01:55:40.608Z,20.25
2023-01-29T01:58:32.801Z,22.10
2023-01-29T02:00:59.794Z,20.27
2023-01-29T02:03:46.949Z,19.23
2023-01-29T02:06:32.269Z,21.85
2023-01-29T02:09:23.965Z,19.98
2023-01-29T02:11:51.456Z,20.33
2023-01-29T02:14:18.072Z,21.17
2023-01-29T02:16:46.579Z,20.33
2023-01-29T02:19:36.578Z,21.63
2023-01-29T02:22:39.843Z,26.02
2023-01-29T02:25:49.288Z,29.33
2023-01-29T02:28:21.797Z,25.85
2023-01-29T02:30:59.842Z,22.05
2023-01-29T02:33:45.096Z,26.30
2023-01-29T02:36:26.566Z,24.95
2023-01-29T02:38:53.978Z,26.92
2023-01-29T02:41:36.575Z,24.00
2023-01-29T02:44:38.983Z,25.83
2023-01-29T02:47:17.140Z,25.42
2023-01-29T02:50:05.495Z,28.10
2023-01-29T02:52:56.949Z,30.75
2023-01-29T02:55:32.209Z,28.60
2023-01-29T02:58:06.167Z,24.67
2023-01-29T03:00:38.265Z,28.40
2023-01-29T03:03:11.290Z,30.10
2023-01-29T03:05:51.890Z,31.17
2023-01-29T03:08:37.192Z,27.63
2023-01-29T03:11:06.696Z,28.33
2023-01-29T03:13:54.887Z,28.38
2023-01-29T03:16:40.001Z,30.25
2023-01-29T03:19:11.487Z,31.77
2023-01-29T03:21:51.380Z,29.90
2023-01-29T03:24:41.266Z,24.40
2023-01-29T03:27:30.466Z,22.20
2023-01-29T03:30:17.901Z,27.25
2023-01-29T03:32:46.665Z,25.77
2023-01-29T03:35:21.078Z,22.45
2023-01-29T03:37:50.368Z,22.55
2023-01-29T03:40:18.712Z,21.70
2023-01-29T03:42:57.842Z,26.50
2023-01-29T03:45:32.968Z,25.40
2023-01-29T03:48:15.842Z,29.98
2023-01-29T03:50:51.699Z,28.17
2023-01-29T03:53:47.970Z,28.77
2023-01-29T03:56:40.374Z,23.95
2023-01-29T03:59:22.947Z,30.67
2023-01-29T04:01:57.817Z,26.95
2023-01-29T04:04:29.190Z,28.27
2023-01-29T04:07:00.924Z,22.40
2023-01-29T04:10:04.309Z,26.13
2023-01-29T04:12:37.790Z,24.27
2023-01-29T04:15:09.899Z,28.38
2023-01-29T04:17:41.366Z,18.55
2023-01-29T04:20:09.545Z,25.45
2023-01-29T04:22:41.562Z,23.83
2023-01-29T04:25:17.720Z,29.52
2023-01-29T04:28:11.044Z,20.65
2023-01-29T04:31:02.742Z,27.50
2023-01-29T04:33:43.638Z,22.60
2023-01-29T04:36:25.363Z,26.35
2023-01-29T04:39:11.962Z,25.48
2023-01-29T04:44:09.822Z,21.98
2023-01-29T04:46:47.045Z,23.52
2023-01-29T04:50:08.154Z,17.25
2023-01-29T04:53:10.828Z,24.60
2023-01-29T04:55:54.694Z,24.00
2023-01-29T04:58:37.251Z,27.60
2023-01-29T05:01:06.747Z,26.00
2023-01-29T05:03:36.264Z,22.42
2023-01-29T05:06:06.067Z,22.05
2023-01-29T05:08:34.031Z,18.58
2023-01-29T05:11:00.804Z,21.25
2023-01-29T05:13:30.059Z,20.98
2023-01-29T05:16:27.946Z,21.83
2023-01-29T05:18:55.081Z,21.48
2023-01-29T05:21:23.504Z,19.30
2023-01-29T05:24:25.197Z,18.27
2023-01-29T05:27:13.230Z,22.75
2023-01-29T05:29:46.117Z,21.65
2023-01-29T05:32:13.213Z,16.83
2023-01-29T05:34:39.798Z,17.13
2023-01-29T05:37:08.871Z,24.67
2023-01-29T05:39:36.500Z,12.90
2023-01-29T05:42:03.384Z,18.33
2023-01-29T05:44:29.990Z,22.02
2023-01-29T05:46:56.707Z,12.45
2023-01-29T05:49:23.328Z,14.73
2023-01-29T05:51:50.016Z,16.08
2023-01-29T05:54:16.630Z,18.45
2023-01-29T05:56:43.405Z,19.30
2023-01-29T05:59:10.766Z,17.17
2023-01-29T06:01:37.691Z,16.00
2023-01-29T06:04:04.433Z,19.08
2023-01-29T06:06:31.108Z,15.05
2023-01-29T06:08:57.647Z,18.65
2023-01-29T06:11:24.721Z,18.50
2023-01-29T06:13:51.354Z,14.23
2023-01-29T06:16:17.993Z,16.38
2023-01-29T06:18:44.675Z,17.33
2023-01-29T06:21:14.323Z,16.40
2023-01-29T06:23:41.695Z,16.42
2023-01-29T06:26:14.121Z,18.20
2023-01-29T06:28:41.066Z,15.57
2023-01-29T06:31:24.318Z,21.10
2023-01-29T06:33:55.258Z,23.35
2023-01-29T06:36:23.100Z,19.90
2023-01-29T06:38:54.055Z,16.67
2023-01-29T06:41:26.308Z,17.00
2023-01-29T06:44:01.079Z,23.05
2023-01-29T06:46:27.822Z,19.98
2023-01-29T06:49:03.643Z,14.70
2023-01-29T06:51:34.151Z,15.98
2023-01-29T06:54:00.754Z,20.85
2023-01-29T06:56:27.450Z,18.38
2023-01-29T06:58:54.174Z,17.73
2023-01-29T07:01:34.743Z,18.08
2023-01-29T07:04:06.113Z,13.48
2023-01-29T07:06:33.051Z,15.88
2023-01-29T07:08:59.831Z,12.60
2023-01-29T07:11:27.212Z,12.73
2023-01-29T07:13:53.747Z,10.55
2023-01-29T07:16:20.421Z,11.30
2023-01-29T07:18:47.944Z,6.85
2023-01-29T07:21:14.749Z,13.15
2023-01-29T07:23:41.354Z,13.23
2023-01-29T07:26:08.320Z,6.65
